Terminal Aerodrome Forecast
Issued by NWS

Home | Current Version | Previous Version | Text Only | Print | Product List | Glossary On
Versions: 1 2 3 4 5 6 7 8 9 10 11 12 13 14
000
FTUS44 KCRP 162047 AAA
TAFALI
TAF AMD
KALI 162047Z 1621/1718 34008KT 4SM -RA BR BKN008 OVC012
     FM170300 36005KT 3SM BR BKN005=

USA.gov is the U.S. government's official web portal to all federal, state and local government web resources and services.